Time;durP1;ratioP1;P1;durP2;ratioP2;P2;SDS_P1;SDS_P2;PMS_P1;PMS_P2;Temp;Humidity;BMP_temperature;BMP_pressure;BME280_temperature;BME280_humidity;BME280_pressure;Samples;Min_cycle;Max_cycle;Signal;HPM_P1;HPM_P2
2022/06/10 00:00:12;;;;;;;;;;;20.50;63.00;;;;;;5031871;28;19909;-67
2022/06/10 00:02:37;;;;;;;;;;;20.50;62.80;;;;;;5030454;28;19936;-67
2022/06/10 00:05:03;;;;;;;;;;;20.50;62.90;;;;;;5031788;28;19909;-67
2022/06/10 00:07:34;;;;;;;;;;;20.50;63.40;;;;;;5023173;28;19920;-67
2022/06/10 00:09:59;;;;;;;;;;;20.50;63.80;;;;;;5021613;28;19921;-67
2022/06/10 00:12:25;;;;;;;;;;;20.40;63.20;;;;;;5030653;28;19909;-67
2022/06/10 00:14:51;;;;;;;;;;;20.50;63.60;;;;;;5031669;28;19958;-67
2022/06/10 00:17:17;;;;;;;;;;;20.40;63.40;;;;;;5031858;28;19928;-67
2022/06/10 00:19:43;;;;;;;;;;;20.50;63.50;;;;;;5031804;28;19920;-68
2022/06/10 00:24:47;;;;;;;;;;;20.30;63.60;;;;;;5009322;28;19950;-57
2022/06/10 00:27:13;;;;;;;;;;;20.20;63.80;;;;;;4994527;28;20361;-56
2022/06/10 00:29:39;;;;;;;;;;;20.00;64.40;;;;;;5012511;28;19999;-55
2022/06/10 00:32:05;;;;;;;;;;;20.00;65.30;;;;;;5011542;28;20342;-57
2022/06/10 00:34:35;;;;;;;;;;;19.90;65.20;;;;;;5012157;28;19920;-56
2022/06/10 00:37:01;;;;;;;;;;;19.90;65.90;;;;;;4994668;28;19914;-56
2022/06/10 00:39:26;;;;;;;;;;;19.80;65.40;;;;;;4994240;28;20290;-54
2022/06/10 00:41:52;;;;;;;;;;;19.70;65.50;;;;;;5005179;28;19909;-58
2022/06/10 00:44:35;;;;;;;;;;;19.50;67.00;;;;;;4994046;28;19905;-58
2022/06/10 00:47:04;;;;;;;;;;;19.50;67.30;;;;;;5010626;28;19976;-53
2022/06/10 00:49:31;;;;;;;;;;;19.50;66.50;;;;;;5010754;28;19905;-55
2022/06/10 00:51:57;;;;;;;;;;;19.40;66.40;;;;;;5006203;28;19910;-57
2022/06/10 00:54:22;;;;;;;;;;;19.40;66.70;;;;;;4991305;28;20005;-56
2022/06/10 00:56:51;;;;;;;;;;;19.40;67.90;;;;;;4991427;28;19989;-55
2022/06/10 00:59:22;;;;;;;;;;;19.30;66.80;;;;;;4991901;28;19910;-56
2022/06/10 01:01:51;;;;;;;;;;;19.30;67.00;;;;;;5003476;28;20004;-53
2022/06/10 01:04:17;;;;;;;;;;;19.20;68.00;;;;;;5002589;28;19957;-56
2022/06/10 01:06:43;;;;;;;;;;;19.10;67.70;;;;;;5003047;28;19951;-56
2022/06/10 01:09:08;;;;;;;;;;;19.10;67.70;;;;;;4975392;28;20382;-55
2022/06/10 01:11:52;;;;;;;;;;;19.10;68.00;;;;;;4997668;28;19914;-56
2022/06/10 01:14:21;;;;;;;;;;;19.00;68.90;;;;;;5000295;28;19913;-56
2022/06/10 01:16:53;;;;;;;;;;;18.90;68.70;;;;;;4978961;28;19910;-54
2022/06/10 01:19:28;;;;;;;;;;;18.90;69.40;;;;;;4996380;28;19906;-53
2022/06/10 01:21:56;;;;;;;;;;;19.00;69.00;;;;;;4979578;28;20380;-53
2022/06/10 01:24:22;;;;;;;;;;;19.00;68.50;;;;;;5003729;28;19928;-55
2022/06/10 01:29:47;;;;;;;;;;;19.00;68.70;;;;;;5015645;28;20280;-55
2022/06/10 01:32:21;;;;;;;;;;;19.00;68.90;;;;;;4985359;28;19910;-56
2022/06/10 01:34:50;;;;;;;;;;;18.80;69.10;;;;;;5005714;28;19929;-57
2022/06/10 01:37:27;;;;;;;;;;;18.80;69.30;;;;;;5013921;28;19909;-57
2022/06/10 01:39:59;;;;;;;;;;;18.70;71.60;;;;;;5013779;28;19917;-59
2022/06/10 01:42:28;;;;;;;;;;;18.70;71.90;;;;;;4997680;28;20362;-57
2022/06/10 01:45:12;;;;;;;;;;;18.60;71.30;;;;;;5004644;28;19910;-56
2022/06/10 01:47:38;;;;;;;;;;;18.60;70.90;;;;;;5014093;28;20004;-56
2022/06/10 01:50:06;;;;;;;;;;;18.60;72.30;;;;;;5013392;28;20067;-56
2022/06/10 01:52:41;;;;;;;;;;;18.60;72.70;;;;;;5014787;28;19909;-59
2022/06/10 01:55:18;;;;;;;;;;;18.60;71.90;;;;;;5013580;28;19913;-56
2022/06/10 01:57:57;;;;;;;;;;;18.70;72.10;;;;;;5014737;28;20002;-56
2022/06/10 02:00:28;;;;;;;;;;;18.70;72.20;;;;;;5013457;28;19917;-57
2022/06/10 02:02:58;;;;;;;;;;;18.70;72.40;;;;;;4985811;28;20374;-56
2022/06/10 02:05:24;;;;;;;;;;;18.70;72.80;;;;;;5008356;28;19913;-57
2022/06/10 02:07:56;;;;;;;;;;;18.60;73.40;;;;;;5001630;28;19949;-57
2022/06/10 02:10:44;;;;;;;;;;;18.60;73.20;;;;;;4996571;28;20313;-57
2022/06/10 02:13:14;;;;;;;;;;;18.60;73.60;;;;;;4995977;28;20051;-58
2022/06/10 02:15:47;;;;;;;;;;;18.60;73.40;;;;;;5009809;28;19916;-58
2022/06/10 02:18:14;;;;;;;;;;;18.60;74.30;;;;;;4998934;28;19909;-58
2022/06/10 02:20:44;;;;;;;;;;;18.60;73.10;;;;;;5011196;28;20401;-57
2022/06/10 02:23:13;;;;;;;;;;;18.60;73.90;;;;;;4995048;28;19914;-57
2022/06/10 02:25:42;;;;;;;;;;;18.70;74.40;;;;;;5009705;28;19992;-58
2022/06/10 02:28:09;;;;;;;;;;;18.70;74.90;;;;;;5003365;28;19910;-58
2022/06/10 02:30:38;;;;;;;;;;;18.70;72.70;;;;;;4995091;28;19909;-55
2022/06/10 02:33:04;;;;;;;;;;;18.80;74.40;;;;;;4999727;28;19913;-55
2022/06/10 02:35:37;;;;;;;;;;;18.80;73.40;;;;;;5008787;28;19956;-56
2022/06/10 02:38:09;;;;;;;;;;;18.80;73.40;;;;;;5012546;28;19913;-56
2022/06/10 02:40:38;;;;;;;;;;;18.80;74.50;;;;;;5009725;28;19909;-58
2022/06/10 02:43:15;;;;;;;;;;;18.80;73.30;;;;;;5004814;28;19909;-56
2022/06/10 02:45:44;;;;;;;;;;;18.80;73.70;;;;;;5004817;28;19932;-54
2022/06/10 02:48:30;;;;;;;;;;;18.80;73.10;;;;;;5003657;28;20309;-57
2022/06/10 02:50:56;;;;;;;;;;;18.70;74.80;;;;;;5011441;28;19909;-54
2022/06/10 02:53:21;;;;;;;;;;;18.70;73.40;;;;;;5006305;28;19913;-56
2022/06/10 02:55:47;;;;;;;;;;;18.70;73.70;;;;;;5005453;28;19913;-55
2022/06/10 03:01:12;;;;;;;;;;;18.50;74.80;;;;;;5013010;28;19917;-54
2022/06/10 03:03:43;;;;;;;;;;;18.40;74.50;;;;;;5011878;28;19917;-56
2022/06/10 03:06:14;;;;;;;;;;;18.40;75.90;;;;;;4998731;28;20373;-57
2022/06/10 03:08:45;;;;;;;;;;;18.40;75.90;;;;;;5013926;28;19905;-54
2022/06/10 03:11:30;;;;;;;;;;;18.40;76.20;;;;;;5007017;28;19914;-57
2022/06/10 03:14:11;;;;;;;;;;;18.40;76.10;;;;;;5004922;28;19913;-57
2022/06/10 03:16:49;;;;;;;;;;;18.40;74.90;;;;;;5013762;28;19906;-56
2022/06/10 03:19:30;;;;;;;;;;;18.50;76.00;;;;;;5012892;28;20393;-56
2022/06/10 03:22:08;;;;;;;;;;;18.50;74.70;;;;;;4995637;28;20262;-56
2022/06/10 03:24:39;;;;;;;;;;;18.50;74.90;;;;;;5010083;28;19967;-57
2022/06/10 03:27:05;;;;;;;;;;;18.50;75.90;;;;;;5012082;28;19905;-56
2022/06/10 03:29:33;;;;;;;;;;;18.40;75.30;;;;;;5008769;28;20293;-54
2022/06/10 03:32:03;;;;;;;;;;;18.30;76.60;;;;;;5010668;28;19909;-57
2022/06/10 03:34:42;;;;;;;;;;;18.30;76.60;;;;;;5013147;28;19909;-57
2022/06/10 03:37:09;;;;;;;;;;;18.30;76.60;;;;;;5013102;28;19905;-55
2022/06/10 03:39:35;;;;;;;;;;;18.30;75.80;;;;;;5013244;28;19906;-57
2022/06/10 03:42:13;;;;;;;;;;;18.40;76.10;;;;;;4994979;28;19914;-57
2022/06/10 03:44:39;;;;;;;;;;;18.40;75.60;;;;;;5009077;28;19905;-56
2022/06/10 03:47:06;;;;;;;;;;;18.40;76.30;;;;;;5013155;28;19913;-56
2022/06/10 03:50:01;;;;;;;;;;;18.40;76.80;;;;;;5011445;28;19909;-55
2022/06/10 03:52:28;;;;;;;;;;;18.40;76.10;;;;;;4999885;28;19975;-56
2022/06/10 03:54:54;;;;;;;;;;;18.40;75.90;;;;;;5011273;28;19913;-57
2022/06/10 03:57:20;;;;;;;;;;;18.40;76.40;;;;;;5010643;28;19967;-58
2022/06/10 03:59:46;;;;;;;;;;;18.40;75.70;;;;;;5012593;28;19987;-58
2022/06/10 04:02:12;;;;;;;;;;;18.40;75.70;;;;;;5011016;28;19956;-57
2022/06/10 04:04:38;;;;;;;;;;;18.50;75.10;;;;;;5012647;28;19905;-60
2022/06/10 04:07:04;;;;;;;;;;;18.50;75.80;;;;;;5012305;28;19905;-57
2022/06/10 04:09:29;;;;;;;;;;;18.50;75.60;;;;;;5012504;28;19906;-58
2022/06/10 04:11:55;;;;;;;;;;;18.40;75.40;;;;;;5012523;28;19964;-56
2022/06/10 04:14:21;;;;;;;;;;;18.40;76.20;;;;;;5012280;28;19913;-58
2022/06/10 04:16:46;;;;;;;;;;;18.40;75.70;;;;;;5012552;28;20453;-54
2022/06/10 04:19:12;;;;;;;;;;;18.30;75.80;;;;;;5012297;28;20000;-54
2022/06/10 04:21:38;;;;;;;;;;;18.30;75.80;;;;;;5012531;28;19905;-60
2022/06/10 04:24:04;;;;;;;;;;;18.40;75.30;;;;;;5012144;28;19968;-61
2022/06/10 04:26:29;;;;;;;;;;;18.40;74.70;;;;;;5012437;28;19949;-60
2022/06/10 04:28:55;;;;;;;;;;;18.30;75.00;;;;;;5012288;28;19959;-57
2022/06/10 04:31:20;;;;;;;;;;;18.30;75.10;;;;;;5012352;28;19909;-58
2022/06/10 04:33:46;;;;;;;;;;;18.20;74.70;;;;;;5012326;28;19909;-60
2022/06/10 04:36:14;;;;;;;;;;;18.10;74.20;;;;;;5012194;28;19905;-60
2022/06/10 04:38:40;;;;;;;;;;;18.10;74.60;;;;;;5003170;28;19917;-60
2022/06/10 04:41:06;;;;;;;;;;;18.20;74.60;;;;;;4992734;28;19925;-63
2022/06/10 04:43:32;;;;;;;;;;;18.20;73.90;;;;;;5007150;28;19960;-62
2022/06/10 04:45:58;;;;;;;;;;;18.20;73.50;;;;;;5011933;28;19906;-62
2022/06/10 04:48:24;;;;;;;;;;;18.20;73.00;;;;;;5012019;28;19965;-54
2022/06/10 04:50:50;;;;;;;;;;;18.20;72.80;;;;;;5012097;28;20393;-59
2022/06/10 04:53:15;;;;;;;;;;;18.20;72.20;;;;;;5011972;28;19905;-58
2022/06/10 04:55:41;;;;;;;;;;;18.10;71.70;;;;;;5012072;28;20051;-59
2022/06/10 04:58:06;;;;;;;;;;;18.20;71.20;;;;;;5011821;28;19905;-58
2022/06/10 05:00:34;;;;;;;;;;;18.20;70.10;;;;;;5011942;28;20318;-57
2022/06/10 05:03:01;;;;;;;;;;;18.20;69.50;;;;;;5011874;28;19992;-57
2022/06/10 05:05:26;;;;;;;;;;;18.20;69.80;;;;;;5012179;28;19909;-57
2022/06/10 05:07:52;;;;;;;;;;;18.30;67.20;;;;;;5011777;28;19905;-55
2022/06/10 05:10:18;;;;;;;;;;;18.30;68.20;;;;;;5012133;28;19905;-53
2022/06/10 05:12:46;;;;;;;;;;;18.40;67.70;;;;;;5011099;28;19910;-53
2022/06/10 05:15:13;;;;;;;;;;;18.50;67.10;;;;;;5011957;28;19913;-54
2022/06/10 05:17:39;;;;;;;;;;;18.50;62.10;;;;;;5011551;28;20289;-58
2022/06/10 05:20:05;;;;;;;;;;;18.60;64.50;;;;;;5011295;28;20004;-59
2022/06/10 05:22:30;;;;;;;;;;;18.70;63.40;;;;;;5011745;28;20102;-59
2022/06/10 05:24:56;;;;;;;;;;;18.70;62.90;;;;;;5011199;28;19920;-57
2022/06/10 05:27:22;;;;;;;;;;;18.70;61.30;;;;;;5011579;28;19937;-58
2022/06/10 05:29:47;;;;;;;;;;;18.90;61.50;;;;;;5011453;28;20402;-60
2022/06/10 05:32:13;;;;;;;;;;;18.90;59.50;;;;;;4994295;28;19913;-60
2022/06/10 05:34:44;;;;;;;;;;;18.90;59.90;;;;;;4993367;28;19913;-59
2022/06/10 05:37:10;;;;;;;;;;;18.90;60.00;;;;;;5011646;28;20278;-60
2022/06/10 05:39:36;;;;;;;;;;;19.00;60.50;;;;;;5011803;28;19905;-58
2022/06/10 05:42:04;;;;;;;;;;;19.10;58.60;;;;;;5011226;28;19912;-59
2022/06/10 05:44:30;;;;;;;;;;;19.10;58.30;;;;;;5011390;28;19995;-57
2022/06/10 05:46:56;;;;;;;;;;;19.10;59.20;;;;;;5011515;28;19952;-59
2022/06/10 05:49:22;;;;;;;;;;;19.20;58.80;;;;;;4993756;28;19996;-58
2022/06/10 05:51:47;;;;;;;;;;;19.20;58.60;;;;;;5011683;28;19948;-58
2022/06/10 05:54:13;;;;;;;;;;;19.30;58.10;;;;;;4993767;28;20027;-60
2022/06/10 05:56:40;;;;;;;;;;;19.30;57.20;;;;;;5013904;28;19916;-59
2022/06/10 05:59:06;;;;;;;;;;;19.30;57.60;;;;;;5015000;28;19905;-60
2022/06/10 06:01:31;;;;;;;;;;;19.40;57.80;;;;;;5015213;28;19909;-60
2022/06/10 06:03:57;;;;;;;;;;;19.40;57.60;;;;;;5014828;28;19916;-58
2022/06/10 06:06:23;;;;;;;;;;;19.50;57.90;;;;;;5014949;28;19929;-60
2022/06/10 06:08:48;;;;;;;;;;;19.50;58.10;;;;;;5014753;28;19905;-59
2022/06/10 06:11:15;;;;;;;;;;;19.70;58.20;;;;;;4997065;28;19910;-60
2022/06/10 06:13:40;;;;;;;;;;;19.70;56.40;;;;;;5014878;28;19905;-58
2022/06/10 06:16:08;;;;;;;;;;;19.80;57.40;;;;;;5014369;28;19912;-61
2022/06/10 06:18:33;;;;;;;;;;;19.90;56.20;;;;;;5014734;28;19905;-59
2022/06/10 06:20:59;;;;;;;;;;;19.90;56.90;;;;;;5014674;28;19951;-59
2022/06/10 06:23:24;;;;;;;;;;;20.10;57.40;;;;;;5035638;23;19922;-71
2022/06/10 06:25:50;;;;;;;;;;;20.20;56.40;;;;;;5013194;28;19909;-71
2022/06/10 06:28:16;;;;;;;;;;;20.30;55.50;;;;;;4997046;28;20289;-71
2022/06/10 06:30:41;;;;;;;;;;;20.40;54.80;;;;;;5014279;28;19905;-71
2022/06/10 06:33:08;;;;;;;;;;;20.40;56.00;;;;;;5011269;28;19912;-71
2022/06/10 06:35:34;;;;;;;;;;;20.50;53.40;;;;;;4995149;28;20255;-71
2022/06/10 06:38:01;;;;;;;;;;;20.60;53.30;;;;;;4995025;28;19906;-70
2022/06/10 06:40:26;;;;;;;;;;;20.70;54.70;;;;;;4995084;28;20329;-72
2022/06/10 06:42:52;;;;;;;;;;;20.80;53.20;;;;;;4977584;28;19905;-72
2022/06/10 06:45:18;;;;;;;;;;;20.90;51.80;;;;;;4995064;28;19909;-72
2022/06/10 06:47:44;;;;;;;;;;;20.90;50.90;;;;;;4994852;28;19906;-72
2022/06/10 06:50:13;;;;;;;;;;;21.00;51.50;;;;;;4994935;28;19964;-72
2022/06/10 06:52:40;;;;;;;;;;;21.00;51.50;;;;;;4994557;28;20263;-70
2022/06/10 06:55:05;;;;;;;;;;;21.10;52.10;;;;;;4976982;28;19905;-71
2022/06/10 06:57:31;;;;;;;;;;;21.20;52.40;;;;;;4994703;28;19913;-71
2022/06/10 07:00:05;;;;;;;;;;;21.30;51.50;;;;;;4977322;28;19982;-70
2022/06/10 07:02:31;;;;;;;;;;;21.40;49.80;;;;;;4994748;28;19913;-72
2022/06/10 07:04:56;;;;;;;;;;;21.40;50.70;;;;;;4994565;28;20259;-71
2022/06/10 07:07:22;;;;;;;;;;;21.50;49.10;;;;;;4993520;28;19905;-71
2022/06/10 07:09:47;;;;;;;;;;;21.50;49.40;;;;;;4994673;28;19906;-71
2022/06/10 07:12:13;;;;;;;;;;;21.50;49.00;;;;;;4994136;28;19914;-72
2022/06/10 07:14:38;;;;;;;;;;;21.60;49.40;;;;;;4994392;28;19965;-70
2022/06/10 07:17:04;;;;;;;;;;;21.60;48.30;;;;;;4977043;28;20474;-73
2022/06/10 07:19:30;;;;;;;;;;;21.60;47.50;;;;;;4994342;28;19913;-71
2022/06/10 07:21:56;;;;;;;;;;;21.70;48.80;;;;;;4976678;28;19905;-71
2022/06/10 07:24:21;;;;;;;;;;;21.80;48.80;;;;;;4993848;28;19913;-71
2022/06/10 07:26:47;;;;;;;;;;;21.80;48.90;;;;;;4993315;28;19913;-70
2022/06/10 07:29:13;;;;;;;;;;;21.90;48.90;;;;;;4976535;28;19905;-71
2022/06/10 07:31:41;;;;;;;;;;;22.00;47.50;;;;;;4976588;28;20370;-71
2022/06/10 07:34:07;;;;;;;;;;;22.00;47.50;;;;;;4976493;28;20064;-71
2022/06/10 07:36:33;;;;;;;;;;;22.00;48.10;;;;;;4993975;28;19976;-71
2022/06/10 07:38:58;;;;;;;;;;;22.00;48.70;;;;;;4993827;28;20378;-71
2022/06/10 07:42:09;;;;;;;;;;;22.10;48.20;;;;;;4994332;28;19905;-72
2022/06/10 07:44:10;;;;;;;;;;;22.20;47.70;;;;;;4989808;28;19912;-71
2022/06/10 07:46:35;;;;;;;;;;;22.20;47.50;;;;;;4993853;28;19910;-71
2022/06/10 07:49:01;;;;;;;;;;;22.30;46.80;;;;;;4993643;28;19909;-70
2022/06/10 07:51:26;;;;;;;;;;;22.40;47.50;;;;;;4985404;28;19910;-71
2022/06/10 07:53:52;;;;;;;;;;;22.40;47.50;;;;;;4990600;28;20005;-70
2022/06/10 07:56:18;;;;;;;;;;;22.50;47.50;;;;;;4993726;28;19906;-70
2022/06/10 07:58:44;;;;;;;;;;;22.60;47.20;;;;;;4993387;28;19995;-71
2022/06/10 08:01:10;;;;;;;;;;;22.60;44.70;;;;;;4993349;28;19941;-71
2022/06/10 08:03:36;;;;;;;;;;;22.70;43.60;;;;;;4992918;28;19910;-71
2022/06/10 08:06:02;;;;;;;;;;;22.70;45.00;;;;;;4993418;28;20259;-71
2022/06/10 08:08:28;;;;;;;;;;;22.80;42.30;;;;;;4993233;28;19989;-71
2022/06/10 08:10:54;;;;;;;;;;;22.90;44.40;;;;;;4993053;28;19953;-71
2022/06/10 08:13:19;;;;;;;;;;;22.90;45.80;;;;;;4993077;28;20290;-71
2022/06/10 08:15:46;;;;;;;;;;;23.20;46.30;;;;;;4975333;28;20273;-71
2022/06/10 08:18:12;;;;;;;;;;;23.30;45.60;;;;;;4975136;28;19909;-71
2022/06/10 08:23:24;;;;;;;;;;;23.40;43.30;;;;;;4992947;28;19924;-71
2022/06/10 08:25:50;;;;;;;;;;;23.50;44.80;;;;;;4993008;28;19905;-71
2022/06/10 08:28:16;;;;;;;;;;;23.50;44.20;;;;;;4975194;28;19989;-71
2022/06/10 08:30:41;;;;;;;;;;;23.50;44.80;;;;;;4976386;28;19986;-71
2022/06/10 08:33:07;;;;;;;;;;;23.60;45.40;;;;;;4976102;28;19905;-71
2022/06/10 08:35:33;;;;;;;;;;;23.60;44.80;;;;;;4975835;28;19913;-70
2022/06/10 08:38:00;;;;;;;;;;;23.60;44.40;;;;;;4975210;28;19912;-69
2022/06/10 08:40:40;;;;;;;;;;;23.70;43.40;;;;;;4992558;28;20285;-70
2022/06/10 08:43:14;;;;;;;;;;;23.70;43.30;;;;;;4993006;28;19996;-69
2022/06/10 08:45:46;;;;;;;;;;;23.80;43.40;;;;;;4992627;28;19906;-69
2022/06/10 08:48:12;;;;;;;;;;;23.90;44.30;;;;;;4992677;28;20040;-70
2022/06/10 08:50:40;;;;;;;;;;;23.90;43.60;;;;;;4992288;28;19964;-70
2022/06/10 08:53:17;;;;;;;;;;;24.10;43.10;;;;;;4992421;28;19913;-69
2022/06/10 08:55:52;;;;;;;;;;;24.20;42.90;;;;;;4975216;28;19910;-70
2022/06/10 08:58:27;;;;;;;;;;;24.30;42.90;;;;;;4992223;28;19922;-70
2022/06/10 09:00:55;;;;;;;;;;;24.30;43.10;;;;;;4974726;28;20362;-66
2022/06/10 09:03:23;;;;;;;;;;;24.40;42.20;;;;;;4992533;28;19905;-67
2022/06/10 09:05:55;;;;;;;;;;;24.50;41.80;;;;;;4992297;28;19952;-64
2022/06/10 09:08:23;;;;;;;;;;;24.50;41.90;;;;;;4992559;28;19910;-67
2022/06/10 09:10:54;;;;;;;;;;;24.60;41.40;;;;;;4974823;28;19905;-67
2022/06/10 09:13:20;;;;;;;;;;;24.60;40.80;;;;;;4992223;28;19913;-69
2022/06/10 09:15:51;;;;;;;;;;;24.70;41.40;;;;;;4992366;28;19906;-67
2022/06/10 09:18:37;;;;;;;;;;;24.80;42.10;;;;;;4991897;28;19964;-67
2022/06/10 09:21:08;;;;;;;;;;;24.90;40.60;;;;;;4970855;28;19968;-68
2022/06/10 09:23:38;;;;;;;;;;;25.00;39.70;;;;;;4974235;28;20025;-68
2022/06/10 09:26:09;;;;;;;;;;;25.10;37.90;;;;;;4992074;28;20001;-69
2022/06/10 09:28:39;;;;;;;;;;;25.10;38.60;;;;;;4991395;28;19910;-69
2022/06/10 09:31:13;;;;;;;;;;;25.10;39.70;;;;;;4993212;28;20013;-69
2022/06/10 09:34:04;;;;;;;;;;;25.30;40.50;;;;;;4995964;28;19956;-69
2022/06/10 09:36:42;;;;;;;;;;;25.30;39.50;;;;;;4996045;28;19910;-69
2022/06/10 09:39:07;;;;;;;;;;;25.40;38.50;;;;;;4995897;28;19949;-69
2022/06/10 09:41:33;;;;;;;;;;;25.40;38.00;;;;;;4995833;28;19949;-69
2022/06/10 09:44:08;;;;;;;;;;;25.50;37.50;;;;;;4995543;28;19906;-69
2022/06/10 09:46:39;;;;;;;;;;;25.60;36.60;;;;;;4978478;28;20394;-69
2022/06/10 09:49:04;;;;;;;;;;;25.70;37.50;;;;;;4995296;28;19909;-69
2022/06/10 09:51:39;;;;;;;;;;;25.80;38.20;;;;;;4978334;28;19928;-70
2022/06/10 09:54:23;;;;;;;;;;;25.90;37.90;;;;;;4995451;28;20354;-69
2022/06/10 09:57:01;;;;;;;;;;;26.00;37.70;;;;;;4995036;28;19906;-68
2022/06/10 09:59:44;;;;;;;;;;;26.00;36.50;;;;;;4995377;28;19910;-69
2022/06/10 10:02:25;;;;;;;;;;;26.00;36.60;;;;;;4995464;28;19932;-69
2022/06/10 10:04:51;;;;;;;;;;;26.00;36.90;;;;;;4995648;28;19906;-69
2022/06/10 10:07:39;;;;;;;;;;;26.10;38.30;;;;;;4995262;28;19906;-69
2022/06/10 10:10:14;;;;;;;;;;;26.10;35.70;;;;;;4989461;28;19910;-68
2022/06/10 10:12:59;;;;;;;;;;;26.20;36.20;;;;;;4995234;28;19963;-69
2022/06/10 10:15:28;;;;;;;;;;;26.10;34.50;;;;;;4995406;28;19914;-67
2022/06/10 10:18:15;;;;;;;;;;;26.10;38.40;;;;;;4994022;28;19910;-67
2022/06/10 10:20:40;;;;;;;;;;;26.30;38.10;;;;;;4994728;28;19910;-68
2022/06/10 10:23:06;;;;;;;;;;;26.50;35.80;;;;;;4992354;28;20267;-67
2022/06/10 10:25:31;;;;;;;;;;;26.60;36.70;;;;;;4994854;28;20302;-68
2022/06/10 10:27:57;;;;;;;;;;;26.70;35.10;;;;;;4994038;28;20370;-68
2022/06/10 10:30:32;;;;;;;;;;;26.70;34.90;;;;;;4994374;28;20366;-68
2022/06/10 10:33:03;;;;;;;;;;;26.80;34.00;;;;;;4993747;28;19949;-68
2022/06/10 10:35:40;;;;;;;;;;;26.80;34.40;;;;;;4994618;28;20286;-67
2022/06/10 10:38:11;;;;;;;;;;;26.90;34.20;;;;;;4993998;28;19918;-67
2022/06/10 10:40:39;;;;;;;;;;;26.90;35.60;;;;;;4994403;28;20008;-67
2022/06/10 10:43:07;;;;;;;;;;;26.90;35.50;;;;;;4994398;28;19962;-67
2022/06/10 10:45:34;;;;;;;;;;;26.90;35.60;;;;;;4994822;28;19917;-67
2022/06/10 10:48:17;;;;;;;;;;;27.00;35.50;;;;;;4994044;28;20363;-68
2022/06/10 10:50:51;;;;;;;;;;;27.00;32.60;;;;;;4994291;28;20283;-67
2022/06/10 10:53:22;;;;;;;;;;;27.00;33.20;;;;;;4976908;28;19912;-67
2022/06/10 10:55:49;;;;;;;;;;;27.10;33.70;;;;;;4976163;28;20512;-74
2022/06/10 10:58:17;;;;;;;;;;;27.20;33.20;;;;;;4992742;28;20290;-68
2022/06/10 11:00:44;;;;;;;;;;;27.30;32.20;;;;;;4992533;28;19918;-69
2022/06/10 11:03:28;;;;;;;;;;;27.40;33.60;;;;;;4976234;28;19916;-68
2022/06/10 11:05:54;;;;;;;;;;;27.40;33.60;;;;;;4977240;28;20378;-67
2022/06/10 11:08:20;;;;;;;;;;;27.50;33.60;;;;;;4979533;28;19910;-66
2022/06/10 11:10:48;;;;;;;;;;;27.60;31.00;;;;;;4983778;28;20389;-66
2022/06/10 11:13:17;;;;;;;;;;;27.60;31.70;;;;;;4993186;28;19956;-67
2022/06/10 11:15:43;;;;;;;;;;;27.60;33.40;;;;;;4993552;28;20447;-72
2022/06/10 11:18:12;;;;;;;;;;;27.60;33.60;;;;;;4991923;28;19972;-65
2022/06/10 11:20:38;;;;;;;;;;;27.70;34.80;;;;;;4991690;28;19909;-69
2022/06/10 11:23:20;;;;;;;;;;;27.70;31.40;;;;;;4976247;28;20275;-67
2022/06/10 11:26:01;;;;;;;;;;;27.80;31.70;;;;;;4993905;28;20302;-65
2022/06/10 11:28:27;;;;;;;;;;;27.80;30.60;;;;;;4993218;28;19914;-66
2022/06/10 11:30:52;;;;;;;;;;;27.90;31.00;;;;;;4992848;28;19933;-67
2022/06/10 11:33:20;;;;;;;;;;;28.00;30.40;;;;;;4993210;28;19910;-68
2022/06/10 11:35:58;;;;;;;;;;;28.10;32.70;;;;;;4993270;28;19910;-65
2022/06/10 11:38:26;;;;;;;;;;;28.20;33.40;;;;;;4992971;28;20347;-67
2022/06/10 11:41:11;;;;;;;;;;;28.40;33.60;;;;;;4992502;28;19909;-66
2022/06/10 11:43:41;;;;;;;;;;;28.50;33.90;;;;;;4993092;28;20338;-65
2022/06/10 11:46:16;;;;;;;;;;;28.50;29.50;;;;;;4993240;28;19916;-65
2022/06/10 11:48:57;;;;;;;;;;;28.60;30.00;;;;;;4993163;28;19909;-66
2022/06/10 11:51:43;;;;;;;;;;;28.50;29.20;;;;;;4992997;28;19910;-66
2022/06/10 11:54:15;;;;;;;;;;;28.50;30.00;;;;;;4980102;28;19960;-66
2022/06/10 12:00:03;;;;;;;;;;;28.70;30.40;;;;;;4992818;28;20329;-66
2022/06/10 12:02:33;;;;;;;;;;;28.70;29.80;;;;;;4992706;28;19936;-66
2022/06/10 12:05:19;;;;;;;;;;;28.80;29.80;;;;;;4993327;28;19967;-65
2022/06/10 12:07:49;;;;;;;;;;;28.80;29.40;;;;;;4990735;28;19976;-66
2022/06/10 12:10:17;;;;;;;;;;;28.90;32.90;;;;;;4991958;28;19921;-66
2022/06/10 12:12:43;;;;;;;;;;;29.10;32.40;;;;;;4992974;28;19935;-65
2022/06/10 12:15:32;;;;;;;;;;;29.20;31.50;;;;;;4993072;28;20015;-66
2022/06/10 12:18:01;;;;;;;;;;;29.40;32.00;;;;;;4992814;28;19906;-65
2022/06/10 12:20:41;;;;;;;;;;;29.60;32.40;;;;;;4992390;28;19921;-66
2022/06/10 12:23:12;;;;;;;;;;;29.70;31.80;;;;;;5018519;23;19916;-60
2022/06/10 12:25:59;;;;;;;;;;;29.70;31.30;;;;;;5028604;28;20244;-62
2022/06/10 12:28:30;;;;;;;;;;;29.80;32.50;;;;;;5030407;28;19912;-62
2022/06/10 12:31:00;;;;;;;;;;;29.90;33.00;;;;;;5030939;28;19913;-62
2022/06/10 12:33:48;;;;;;;;;;;29.90;32.90;;;;;;5001971;28;19911;-62
2022/06/10 12:36:17;;;;;;;;;;;30.00;31.70;;;;;;5002121;28;19971;-62
2022/06/10 12:38:43;;;;;;;;;;;30.00;30.00;;;;;;5032301;28;19905;-62
2022/06/10 12:41:15;;;;;;;;;;;30.10;32.00;;;;;;5031751;28;19932;-62
2022/06/10 12:43:44;;;;;;;;;;;30.00;30.70;;;;;;5032331;28;19959;-62
2022/06/10 12:46:27;;;;;;;;;;;30.00;31.80;;;;;;5031787;28;20292;-62
2022/06/10 12:48:54;;;;;;;;;;;30.10;32.30;;;;;;5032119;28;19951;-62
2022/06/10 12:51:26;;;;;;;;;;;30.30;33.00;;;;;;5015401;28;19917;-62
2022/06/10 12:53:51;;;;;;;;;;;30.40;32.70;;;;;;5012374;28;20024;-62
2022/06/10 12:56:18;;;;;;;;;;;30.40;32.30;;;;;;5012553;28;20373;-62
2022/06/10 12:59:05;;;;;;;;;;;30.50;31.50;;;;;;5021644;28;19909;-62
2022/06/10 13:01:31;;;;;;;;;;;30.60;31.50;;;;;;5011121;28;19948;-62
2022/06/10 13:03:58;;;;;;;;;;;30.70;30.50;;;;;;5031887;28;19937;-63
2022/06/10 13:06:23;;;;;;;;;;;30.60;29.00;;;;;;5033989;28;19999;-62
2022/06/10 13:08:50;;;;;;;;;;;30.60;30.10;;;;;;5036107;28;19944;-62
2022/06/10 13:11:30;;;;;;;;;;;30.70;30.00;;;;;;5035961;28;19913;-62
2022/06/10 13:14:09;;;;;;;;;;;30.80;30.20;;;;;;5035505;28;20297;-59
2022/06/10 13:16:34;;;;;;;;;;;30.90;29.80;;;;;;5035874;28;19932;-59
2022/06/10 13:19:00;;;;;;;;;;;31.00;29.30;;;;;;5035805;28;20365;-61
2022/06/10 13:21:30;;;;;;;;;;;31.30;29.20;;;;;;5035715;28;19912;-58
2022/06/10 13:23:59;;;;;;;;;;;31.90;31.30;;;;;;5017189;28;19978;-60
2022/06/10 13:26:25;;;;;;;;;;;33.00;31.10;;;;;;5035933;28;19951;-63
2022/06/10 13:28:51;;;;;;;;;;;34.70;29.30;;;;;;5035837;28;19912;-60
2022/06/10 13:31:24;;;;;;;;;;;36.60;29.70;;;;;;5035159;28;19909;-61
2022/06/10 13:33:52;;;;;;;;;;;38.00;27.20;;;;;;5014133;28;19968;-60
2022/06/10 13:36:19;;;;;;;;;;;39.20;27.50;;;;;;5015971;28;19952;-61
2022/06/10 13:38:46;;;;;;;;;;;40.20;26.30;;;;;;5015731;28;19959;-61
2022/06/10 13:44:22;;;;;;;;;;;42.00;25.80;;;;;;5035101;28;19924;-60
2022/06/10 13:46:47;;;;;;;;;;;43.00;23.90;;;;;;5015833;28;19917;-59
2022/06/10 13:49:20;;;;;;;;;;;43.90;23.90;;;;;;5015561;28;19913;-59
2022/06/10 13:51:51;;;;;;;;;;;44.80;24.30;;;;;;5015632;28;20583;-60
2022/06/10 13:54:21;;;;;;;;;;;45.70;23.80;;;;;;5031622;28;19917;-60
2022/06/10 13:56:48;;;;;;;;;;;45.80;23.20;;;;;;5035509;28;19984;-62
2022/06/10 13:59:40;;;;;;;;;;;46.10;22.90;;;;;;5034704;28;20353;-61
2022/06/10 14:02:16;;;;;;;;;;;46.90;22.10;;;;;;5016397;28;19967;-59
2022/06/10 14:04:42;;;;;;;;;;;47.10;21.90;;;;;;5034951;28;19931;-60
2022/06/10 14:07:14;;;;;;;;;;;47.60;22.10;;;;;;5034140;28;20534;-61
2022/06/10 14:09:40;;;;;;;;;;;47.90;21.90;;;;;;5034295;28;20385;-61
2022/06/10 14:12:18;;;;;;;;;;;47.60;20.30;;;;;;5034894;28;19913;-61
2022/06/10 14:14:44;;;;;;;;;;;47.40;20.90;;;;;;5034223;28;19913;-61
2022/06/10 14:17:09;;;;;;;;;;;47.60;21.50;;;;;;5034149;28;20381;-61
2022/06/10 14:19:43;;;;;;;;;;;48.30;22.20;;;;;;5034702;28;20300;-61
2022/06/10 14:22:16;;;;;;;;;;;48.70;21.30;;;;;;5034689;28;19909;-61
2022/06/10 14:24:42;;;;;;;;;;;49.10;21.20;;;;;;5034316;28;20011;-61
2022/06/10 14:27:11;;;;;;;;;;;49.50;21.00;;;;;;5033600;28;20532;-60
2022/06/10 14:29:44;;;;;;;;;;;49.60;21.00;;;;;;5034577;28;20002;-62
2022/06/10 14:32:21;;;;;;;;;;;49.50;20.70;;;;;;5034703;28;19912;-61
2022/06/10 14:34:48;;;;;;;;;;;49.40;18.80;;;;;;5034156;28;19912;-60
2022/06/10 14:37:26;;;;;;;;;;;49.20;20.10;;;;;;5034500;28;20285;-61
2022/06/10 14:40:10;;;;;;;;;;;49.20;20.80;;;;;;5034619;28;19905;-61
2022/06/10 14:42:36;;;;;;;;;;;49.70;21.10;;;;;;5034569;28;19909;-60
2022/06/10 14:45:22;;;;;;;;;;;50.20;21.00;;;;;;5034517;28;20004;-61
2022/06/10 14:48:05;;;;;;;;;;;50.70;20.50;;;;;;5034205;28;19908;-61